Time;durP1;ratioP1;P1;durP2;ratioP2;P2;SDS_P1;SDS_P2;PMS_P1;PMS_P2;Temp;Humidity;BMP_temperature;BMP_pressure;BME280_temperature;BME280_humidity;BME280_pressure;Samples;Min_cycle;Max_cycle;Signal;HPM_P1;HPM_P2
2023/05/10 00:00:36;;;;;;;;;;;13.40;99.90;;;;;;4982013;28;19929;-65
2023/05/10 00:03:04;;;;;;;;;;;13.40;99.90;;;;;;5010629;28;19922;-65
2023/05/10 00:05:29;;;;;;;;;;;13.40;99.90;;;;;;5012739;28;20406;-65
2023/05/10 00:07:55;;;;;;;;;;;13.40;99.90;;;;;;4995622;28;19921;-65
2023/05/10 00:10:20;;;;;;;;;;;13.40;99.90;;;;;;4994741;28;20013;-65
2023/05/10 00:12:46;;;;;;;;;;;13.40;99.90;;;;;;5019006;28;19928;-65
2023/05/10 00:15:11;;;;;;;;;;;13.30;99.90;;;;;;4995342;28;20376;-65
2023/05/10 00:17:37;;;;;;;;;;;13.30;99.90;;;;;;5006258;28;19934;-65
2023/05/10 00:20:04;;;;;;;;;;;13.30;99.90;;;;;;5007172;28;19928;-65
2023/05/10 00:22:30;;;;;;;;;;;13.20;99.90;;;;;;5012735;28;20061;-65
2023/05/10 00:24:55;;;;;;;;;;;13.20;99.90;;;;;;5005367;28;19925;-65
2023/05/10 00:27:21;;;;;;;;;;;13.20;99.90;;;;;;5009744;28;19928;-65
2023/05/10 00:29:46;;;;;;;;;;;13.20;99.90;;;;;;5017303;28;20008;-64
2023/05/10 00:32:13;;;;;;;;;;;13.20;99.90;;;;;;4995187;28;19929;-65
2023/05/10 00:34:39;;;;;;;;;;;13.20;99.90;;;;;;5006890;28;19954;-65
2023/05/10 00:37:05;;;;;;;;;;;13.20;99.90;;;;;;4998881;28;19922;-65
2023/05/10 00:39:30;;;;;;;;;;;13.20;99.90;;;;;;4996360;28;19928;-65
2023/05/10 00:41:56;;;;;;;;;;;13.20;99.90;;;;;;4998395;28;19976;-65
2023/05/10 00:44:21;;;;;;;;;;;13.20;99.90;;;;;;5009506;28;19922;-65
2023/05/10 00:46:48;;;;;;;;;;;13.20;99.90;;;;;;4998874;28;19968;-65
2023/05/10 00:49:13;;;;;;;;;;;13.20;99.90;;;;;;4984589;28;19930;-65
2023/05/10 00:51:39;;;;;;;;;;;13.20;99.90;;;;;;4991531;28;20524;-65
2023/05/10 00:54:05;;;;;;;;;;;13.20;99.90;;;;;;4998546;28;19922;-65
2023/05/10 00:56:30;;;;;;;;;;;13.20;99.90;;;;;;4997334;28;19945;-65
2023/05/10 00:58:56;;;;;;;;;;;13.20;99.90;;;;;;5013926;28;19921;-65
2023/05/10 01:01:22;;;;;;;;;;;13.20;99.90;;;;;;5009743;28;19921;-65
2023/05/10 01:03:48;;;;;;;;;;;13.20;99.90;;;;;;5018409;28;19922;-65
2023/05/10 01:06:13;;;;;;;;;;;13.20;99.90;;;;;;4995487;28;20300;-65
2023/05/10 01:08:39;;;;;;;;;;;13.20;99.90;;;;;;5016089;28;19983;-65
2023/05/10 01:11:04;;;;;;;;;;;13.10;99.90;;;;;;5018163;28;19928;-65
2023/05/10 01:13:35;;;;;;;;;;;13.20;99.90;;;;;;5014837;28;19921;-65
2023/05/10 01:16:04;;;;;;;;;;;13.10;99.90;;;;;;5007263;28;19961;-65
2023/05/10 01:18:30;;;;;;;;;;;13.20;99.90;;;;;;5001532;28;19928;-65
2023/05/10 01:21:02;;;;;;;;;;;13.20;99.90;;;;;;5018026;28;19991;-64
2023/05/10 01:23:27;;;;;;;;;;;13.10;99.90;;;;;;4998586;28;19922;-65
2023/05/10 01:25:59;;;;;;;;;;;13.10;99.90;;;;;;5013323;28;19921;-65
2023/05/10 01:28:37;;;;;;;;;;;13.10;99.90;;;;;;5014883;28;19987;-65
2023/05/10 01:31:27;;;;;;;;;;;13.10;99.90;;;;;;5015090;28;19965;-64
2023/05/10 01:33:58;;;;;;;;;;;13.10;99.90;;;;;;5000885;28;19921;-65
2023/05/10 01:36:27;;;;;;;;;;;13.10;99.90;;;;;;4994683;28;19921;-65
2023/05/10 01:38:57;;;;;;;;;;;13.10;99.90;;;;;;4993364;28;20045;-65
2023/05/10 01:41:28;;;;;;;;;;;13.10;99.90;;;;;;4998712;28;19945;-65
2023/05/10 01:44:09;;;;;;;;;;;13.10;99.90;;;;;;5002885;28;19922;-65
2023/05/10 01:46:37;;;;;;;;;;;13.10;99.90;;;;;;4994100;28;19921;-65
2023/05/10 01:49:07;;;;;;;;;;;13.00;99.90;;;;;;4992897;28;19925;-64
2023/05/10 01:51:38;;;;;;;;;;;13.00;99.90;;;;;;5002022;28;19921;-64
2023/05/10 01:54:04;;;;;;;;;;;13.00;99.90;;;;;;4995290;28;20364;-64
2023/05/10 01:56:31;;;;;;;;;;;13.10;99.90;;;;;;4994431;28;19968;-65
2023/05/10 01:58:58;;;;;;;;;;;13.00;99.90;;;;;;4998117;28;20008;-64
2023/05/10 02:01:25;;;;;;;;;;;13.00;99.90;;;;;;5002004;28;19921;-64
2023/05/10 02:03:51;;;;;;;;;;;13.00;99.90;;;;;;4995229;28;19925;-65
2023/05/10 02:06:18;;;;;;;;;;;13.00;99.90;;;;;;5000306;28;19922;-64
2023/05/10 02:08:45;;;;;;;;;;;13.00;99.90;;;;;;4994755;28;19933;-64
2023/05/10 02:11:12;;;;;;;;;;;13.00;99.90;;;;;;4992474;28;20004;-65
2023/05/10 02:13:39;;;;;;;;;;;13.00;99.90;;;;;;4988551;28;19996;-65
2023/05/10 02:16:05;;;;;;;;;;;13.00;99.90;;;;;;5000389;28;19922;-65
2023/05/10 02:18:31;;;;;;;;;;;13.00;99.90;;;;;;5005456;28;19928;-65
2023/05/10 02:20:57;;;;;;;;;;;13.00;99.90;;;;;;5014241;28;20016;-64
2023/05/10 02:23:23;;;;;;;;;;;13.00;99.90;;;;;;4993584;28;19922;-65
2023/05/10 02:25:49;;;;;;;;;;;13.00;99.90;;;;;;4998592;28;20411;-65
2023/05/10 02:28:15;;;;;;;;;;;13.00;99.90;;;;;;5009637;28;20004;-64
2023/05/10 02:30:41;;;;;;;;;;;13.00;99.90;;;;;;5000619;28;20071;-65
2023/05/10 02:33:07;;;;;;;;;;;13.00;99.90;;;;;;4998466;28;20436;-64
2023/05/10 02:35:33;;;;;;;;;;;13.00;99.90;;;;;;4994233;28;19944;-64
2023/05/10 02:37:59;;;;;;;;;;;13.00;99.90;;;;;;4994131;28;20032;-65
2023/05/10 02:40:26;;;;;;;;;;;13.00;99.90;;;;;;4997183;28;20379;-64
2023/05/10 02:42:54;;;;;;;;;;;13.00;99.90;;;;;;4993501;28;20444;-64
2023/05/10 02:45:21;;;;;;;;;;;12.90;99.90;;;;;;4993438;28;19937;-64
2023/05/10 02:47:47;;;;;;;;;;;12.90;99.90;;;;;;4994419;28;20053;-64
2023/05/10 02:50:13;;;;;;;;;;;12.90;99.90;;;;;;4993274;28;20381;-64
2023/05/10 02:52:46;;;;;;;;;;;12.90;99.90;;;;;;4993612;28;20155;-64
2023/05/10 02:55:13;;;;;;;;;;;12.90;99.90;;;;;;4984933;28;20511;-64
2023/05/10 02:57:41;;;;;;;;;;;12.90;99.90;;;;;;4993616;28;19925;-64
2023/05/10 03:00:08;;;;;;;;;;;12.90;99.90;;;;;;5000061;28;19968;-64
2023/05/10 03:02:33;;;;;;;;;;;12.90;99.90;;;;;;5009151;28;19922;-64
2023/05/10 03:04:59;;;;;;;;;;;12.90;99.90;;;;;;5004039;28;19926;-64
2023/05/10 03:07:24;;;;;;;;;;;12.90;99.90;;;;;;5001746;28;19922;-65
2023/05/10 03:09:50;;;;;;;;;;;12.90;99.90;;;;;;4993389;28;20343;-64
2023/05/10 03:12:26;;;;;;;;;;;12.90;99.90;;;;;;4991100;28;19925;-65
2023/05/10 03:15:11;;;;;;;;;;;12.90;99.90;;;;;;4998716;28;20387;-65
2023/05/10 03:17:57;;;;;;;;;;;12.90;99.90;;;;;;4993454;28;19922;-64
2023/05/10 03:20:29;;;;;;;;;;;12.90;99.90;;;;;;4999510;28;19925;-65
2023/05/10 03:23:20;;;;;;;;;;;12.90;99.90;;;;;;4999415;28;19926;-64
2023/05/10 03:25:47;;;;;;;;;;;12.90;99.90;;;;;;5011891;28;19929;-65
2023/05/10 03:28:14;;;;;;;;;;;12.90;99.90;;;;;;5008796;28;19929;-65
2023/05/10 03:30:41;;;;;;;;;;;12.90;99.90;;;;;;4991880;28;20025;-64
2023/05/10 03:33:07;;;;;;;;;;;12.90;99.90;;;;;;4997444;28;19925;-64
2023/05/10 03:35:32;;;;;;;;;;;12.90;99.90;;;;;;4992589;28;19929;-64
2023/05/10 03:37:58;;;;;;;;;;;12.90;99.90;;;;;;4987384;28;19969;-65
2023/05/10 03:40:24;;;;;;;;;;;12.90;99.90;;;;;;4997904;28;19921;-64
2023/05/10 03:42:49;;;;;;;;;;;12.90;99.90;;;;;;4993738;28;19932;-64
2023/05/10 03:45:15;;;;;;;;;;;12.90;99.90;;;;;;4999177;28;19922;-64
2023/05/10 03:47:40;;;;;;;;;;;12.90;99.90;;;;;;5000137;28;19976;-64
2023/05/10 03:50:06;;;;;;;;;;;12.90;99.90;;;;;;4997529;28;19930;-64
2023/05/10 03:52:31;;;;;;;;;;;12.90;99.90;;;;;;4984627;28;19922;-65
2023/05/10 03:54:57;;;;;;;;;;;12.90;99.90;;;;;;5006798;28;19922;-64
2023/05/10 03:57:22;;;;;;;;;;;12.90;99.90;;;;;;4998232;28;19921;-64
2023/05/10 03:59:48;;;;;;;;;;;12.80;99.90;;;;;;5003576;28;19976;-64
2023/05/10 04:02:13;;;;;;;;;;;12.90;99.90;;;;;;5012066;28;20395;-64
2023/05/10 04:04:39;;;;;;;;;;;12.90;99.90;;;;;;5012403;28;19923;-64
2023/05/10 04:07:04;;;;;;;;;;;12.80;99.90;;;;;;5003850;28;20291;-65
2023/05/10 04:09:30;;;;;;;;;;;12.80;99.90;;;;;;4991145;28;19933;-64
2023/05/10 04:11:55;;;;;;;;;;;12.80;99.90;;;;;;4994983;28;19929;-64
2023/05/10 04:14:21;;;;;;;;;;;12.80;99.90;;;;;;4992452;28;20424;-64
2023/05/10 04:16:46;;;;;;;;;;;12.80;99.90;;;;;;4992190;28;19929;-64
2023/05/10 04:19:12;;;;;;;;;;;12.80;99.90;;;;;;4984426;28;19922;-66
2023/05/10 04:21:37;;;;;;;;;;;12.80;99.90;;;;;;4991733;28;19976;-66
2023/05/10 04:24:03;;;;;;;;;;;12.80;99.90;;;;;;4990828;28;19926;-66
2023/05/10 04:26:28;;;;;;;;;;;12.80;99.90;;;;;;5002517;28;19926;-66
2023/05/10 04:28:54;;;;;;;;;;;12.80;99.90;;;;;;4999876;28;19972;-66
2023/05/10 04:31:19;;;;;;;;;;;12.80;99.90;;;;;;4991928;28;19926;-66
2023/05/10 04:33:45;;;;;;;;;;;12.80;99.90;;;;;;4989220;28;19929;-64
2023/05/10 04:36:10;;;;;;;;;;;12.80;99.90;;;;;;4985173;28;19991;-66
2023/05/10 04:38:36;;;;;;;;;;;12.80;99.90;;;;;;4990878;28;19928;-64
2023/05/10 04:41:06;;;;;;;;;;;12.80;99.90;;;;;;4992206;28;19932;-64
2023/05/10 04:43:31;;;;;;;;;;;12.80;99.90;;;;;;4991892;28;19988;-64
2023/05/10 04:45:57;;;;;;;;;;;12.80;99.90;;;;;;5004428;28;20001;-64
2023/05/10 04:48:22;;;;;;;;;;;12.70;99.90;;;;;;4991897;28;20057;-64
2023/05/10 04:50:48;;;;;;;;;;;12.80;99.90;;;;;;4992266;28;19926;-64
2023/05/10 04:53:13;;;;;;;;;;;12.80;99.90;;;;;;4990003;28;19992;-64
2023/05/10 04:55:38;;;;;;;;;;;12.80;99.90;;;;;;4989274;28;19957;-64
2023/05/10 04:58:04;;;;;;;;;;;12.80;99.90;;;;;;4992721;28;19922;-64
2023/05/10 05:00:29;;;;;;;;;;;12.80;99.90;;;;;;4987147;28;20340;-65
2023/05/10 05:02:55;;;;;;;;;;;12.80;99.90;;;;;;4999549;28;19922;-64
2023/05/10 05:05:20;;;;;;;;;;;12.80;99.90;;;;;;4995934;28;20372;-66
2023/05/10 05:07:46;;;;;;;;;;;12.80;99.90;;;;;;4995494;28;19922;-66
2023/05/10 05:10:11;;;;;;;;;;;12.80;99.90;;;;;;4991914;28;19926;-65
2023/05/10 05:12:37;;;;;;;;;;;12.80;99.90;;;;;;4995344;28;19929;-66
2023/05/10 05:15:03;;;;;;;;;;;12.80;99.90;;;;;;4993915;28;19925;-66
2023/05/10 05:17:30;;;;;;;;;;;12.80;99.90;;;;;;4982948;28;19926;-66
2023/05/10 05:19:55;;;;;;;;;;;12.80;99.90;;;;;;4993542;28;19932;-66
2023/05/10 05:22:27;;;;;;;;;;;12.80;99.90;;;;;;4994720;28;19922;-64
2023/05/10 05:24:53;;;;;;;;;;;12.80;99.90;;;;;;4986469;28;20000;-65
2023/05/10 05:27:20;;;;;;;;;;;12.80;99.90;;;;;;4988083;28;20060;-66
2023/05/10 05:29:46;;;;;;;;;;;12.80;99.90;;;;;;4994539;28;19925;-64
2023/05/10 05:32:11;;;;;;;;;;;12.90;99.90;;;;;;4984324;28;19922;-64
2023/05/10 05:34:37;;;;;;;;;;;12.90;99.90;;;;;;4976210;28;19933;-65
2023/05/10 05:37:02;;;;;;;;;;;12.90;99.90;;;;;;4989252;28;20284;-65
2023/05/10 05:39:28;;;;;;;;;;;12.90;99.90;;;;;;4994446;28;19922;-65
2023/05/10 05:41:53;;;;;;;;;;;12.90;99.90;;;;;;4999223;28;20252;-66
2023/05/10 05:44:19;;;;;;;;;;;12.90;99.90;;;;;;5004725;28;19925;-65
2023/05/10 05:46:44;;;;;;;;;;;13.00;99.90;;;;;;4974499;28;19929;-65
2023/05/10 05:49:09;;;;;;;;;;;13.00;99.90;;;;;;4984627;28;20463;-65
2023/05/10 05:51:35;;;;;;;;;;;13.00;99.90;;;;;;4997810;28;19922;-66
2023/05/10 05:54:01;;;;;;;;;;;13.00;99.90;;;;;;4992502;28;19921;-66
2023/05/10 05:56:26;;;;;;;;;;;13.00;99.90;;;;;;4985201;28;20040;-66
2023/05/10 05:58:52;;;;;;;;;;;13.00;99.90;;;;;;4985541;28;19973;-67
2023/05/10 06:01:17;;;;;;;;;;;13.10;99.90;;;;;;4989599;28;20272;-65
2023/05/10 06:03:43;;;;;;;;;;;13.00;99.90;;;;;;4986676;28;20384;-66
2023/05/10 06:06:08;;;;;;;;;;;13.00;99.90;;;;;;4981620;28;19980;-65
2023/05/10 06:08:34;;;;;;;;;;;13.00;99.90;;;;;;4983120;28;19933;-65
2023/05/10 06:11:00;;;;;;;;;;;13.10;99.90;;;;;;4982513;28;20052;-65
2023/05/10 06:13:28;;;;;;;;;;;13.10;99.90;;;;;;4994521;28;20394;-64
2023/05/10 06:15:54;;;;;;;;;;;13.20;99.90;;;;;;4990494;28;20346;-66
2023/05/10 06:18:19;;;;;;;;;;;13.30;99.90;;;;;;4993277;28;20392;-67
2023/05/10 06:20:45;;;;;;;;;;;13.30;99.90;;;;;;4993689;28;19945;-67
2023/05/10 06:23:10;;;;;;;;;;;13.30;99.90;;;;;;4986755;28;19929;-64
2023/05/10 06:25:36;;;;;;;;;;;13.40;99.90;;;;;;4993507;28;19929;-65
2023/05/10 06:28:02;;;;;;;;;;;13.40;99.90;;;;;;4979366;28;20385;-65
2023/05/10 06:30:28;;;;;;;;;;;13.50;99.90;;;;;;4974532;28;19926;-64
2023/05/10 06:32:54;;;;;;;;;;;13.60;99.90;;;;;;4986900;28;19929;-65
2023/05/10 06:35:19;;;;;;;;;;;13.60;99.90;;;;;;4989278;28;19925;-65
2023/05/10 06:37:46;;;;;;;;;;;13.70;99.90;;;;;;4979283;28;19921;-66
2023/05/10 06:40:12;;;;;;;;;;;13.80;99.90;;;;;;4984100;28;19934;-67
2023/05/10 06:42:37;;;;;;;;;;;13.90;99.90;;;;;;4985873;28;20315;-66
2023/05/10 06:45:03;;;;;;;;;;;14.00;99.90;;;;;;4986868;28;19922;-66
2023/05/10 06:47:29;;;;;;;;;;;14.00;99.90;;;;;;4982747;28;19922;-66
2023/05/10 06:49:55;;;;;;;;;;;14.20;99.90;;;;;;4989195;28;19925;-66
2023/05/10 06:52:21;;;;;;;;;;;14.30;99.90;;;;;;4992454;28;20024;-66
2023/05/10 06:54:46;;;;;;;;;;;14.30;99.90;;;;;;4974215;28;20021;-67
2023/05/10 06:57:11;;;;;;;;;;;14.30;99.90;;;;;;4973941;28;19945;-67
2023/05/10 06:59:37;;;;;;;;;;;14.30;99.90;;;;;;4992112;28;19933;-66
2023/05/10 07:02:03;;;;;;;;;;;14.30;99.90;;;;;;4990631;28;19928;-67
2023/05/10 07:04:28;;;;;;;;;;;14.30;99.90;;;;;;4991597;28;19953;-65
2023/05/10 07:06:54;;;;;;;;;;;14.30;99.90;;;;;;4984792;28;20411;-65
2023/05/10 07:09:19;;;;;;;;;;;14.30;99.90;;;;;;4986471;28;19934;-65
2023/05/10 07:11:45;;;;;;;;;;;14.30;99.90;;;;;;4987401;28;19929;-65
2023/05/10 07:14:10;;;;;;;;;;;14.30;99.90;;;;;;4980225;28;19929;-65
2023/05/10 07:16:36;;;;;;;;;;;14.30;99.90;;;;;;4985122;28;20040;-65
2023/05/10 07:19:02;;;;;;;;;;;14.30;99.90;;;;;;4978203;28;20230;-65
2023/05/10 07:21:28;;;;;;;;;;;14.30;99.90;;;;;;4997042;28;19930;-65
2023/05/10 07:23:54;;;;;;;;;;;14.30;99.90;;;;;;4987128;28;20020;-65
2023/05/10 07:26:20;;;;;;;;;;;14.20;99.90;;;;;;4991165;28;20024;-65
2023/05/10 07:28:46;;;;;;;;;;;14.20;99.90;;;;;;4980177;28;20701;-65
2023/05/10 07:31:11;;;;;;;;;;;14.20;99.90;;;;;;4991979;28;20951;-65
2023/05/10 07:33:37;;;;;;;;;;;14.20;99.90;;;;;;4981478;28;19922;-64
2023/05/10 07:36:02;;;;;;;;;;;14.20;99.90;;;;;;4987158;28;19930;-65
2023/05/10 07:38:28;;;;;;;;;;;14.10;99.90;;;;;;4988999;28;19926;-65
2023/05/10 07:40:53;;;;;;;;;;;14.10;99.90;;;;;;4986647;28;19960;-66
2023/05/10 07:43:18;;;;;;;;;;;14.00;99.90;;;;;;4986865;28;19925;-66
2023/05/10 07:45:44;;;;;;;;;;;14.10;99.90;;;;;;4996485;28;19928;-65
2023/05/10 07:48:09;;;;;;;;;;;14.10;99.90;;;;;;4981967;28;19926;-65
2023/05/10 07:50:35;;;;;;;;;;;14.20;99.90;;;;;;4983919;28;19961;-65
2023/05/10 07:53:00;;;;;;;;;;;14.30;99.90;;;;;;4996660;28;20347;-65
2023/05/10 07:55:26;;;;;;;;;;;14.30;99.90;;;;;;4979342;28;19922;-65
2023/05/10 07:57:52;;;;;;;;;;;14.30;99.90;;;;;;4990935;28;19922;-65
2023/05/10 08:00:18;;;;;;;;;;;14.30;99.90;;;;;;4991910;28;20004;-65
2023/05/10 08:02:43;;;;;;;;;;;14.30;99.90;;;;;;4982019;28;19937;-65
2023/05/10 08:05:09;;;;;;;;;;;14.30;99.90;;;;;;4984785;28;19926;-66
2023/05/10 08:07:35;;;;;;;;;;;14.40;99.90;;;;;;4982308;28;20202;-65
2023/05/10 08:10:00;;;;;;;;;;;14.50;99.90;;;;;;4982570;28;19934;-64
2023/05/10 08:12:26;;;;;;;;;;;14.60;99.90;;;;;;4986921;28;20548;-65
2023/05/10 08:14:51;;;;;;;;;;;14.80;99.90;;;;;;5000487;28;19921;-66
2023/05/10 08:17:17;;;;;;;;;;;14.90;99.90;;;;;;4987808;28;20020;-65
2023/05/10 08:19:42;;;;;;;;;;;14.80;99.90;;;;;;4980785;28;19921;-65
2023/05/10 08:22:08;;;;;;;;;;;14.80;99.90;;;;;;4991812;28;20348;-65
2023/05/10 08:24:38;;;;;;;;;;;14.90;99.90;;;;;;4990829;28;19930;-65
2023/05/10 08:27:07;;;;;;;;;;;14.90;99.90;;;;;;4991785;28;20342;-65
2023/05/10 08:29:32;;;;;;;;;;;14.90;99.90;;;;;;4998224;28;19933;-64
2023/05/10 08:31:58;;;;;;;;;;;15.00;99.90;;;;;;4998383;28;19922;-65
2023/05/10 08:34:23;;;;;;;;;;;15.20;99.90;;;;;;4989205;28;19922;-65
2023/05/10 08:36:48;;;;;;;;;;;15.30;99.90;;;;;;4992293;28;19921;-65
2023/05/10 08:39:14;;;;;;;;;;;15.40;99.90;;;;;;4990349;28;19922;-65
2023/05/10 08:41:42;;;;;;;;;;;15.50;99.90;;;;;;4988348;28;19929;-65
2023/05/10 08:44:08;;;;;;;;;;;15.40;99.90;;;;;;4983691;28;19984;-65
2023/05/10 08:46:38;;;;;;;;;;;15.60;99.90;;;;;;4991007;28;20391;-65
2023/05/10 08:49:04;;;;;;;;;;;15.60;99.90;;;;;;4982127;28;20361;-67
2023/05/10 08:51:34;;;;;;;;;;;15.50;99.90;;;;;;4987779;28;20439;-67
2023/05/10 08:54:00;;;;;;;;;;;15.50;99.90;;;;;;4986501;28;19922;-67
2023/05/10 08:56:26;;;;;;;;;;;15.60;99.90;;;;;;4990335;28;20008;-64
2023/05/10 08:58:51;;;;;;;;;;;15.70;99.90;;;;;;5000045;28;20388;-64
2023/05/10 09:01:17;;;;;;;;;;;15.80;99.90;;;;;;4993242;28;19921;-64
2023/05/10 09:03:43;;;;;;;;;;;15.90;99.90;;;;;;4994500;28;19984;-65
2023/05/10 09:06:08;;;;;;;;;;;16.00;99.90;;;;;;4989286;28;19999;-64
2023/05/10 09:08:34;;;;;;;;;;;16.10;99.90;;;;;;4987487;28;19930;-66
2023/05/10 09:11:00;;;;;;;;;;;15.90;99.90;;;;;;4983628;28;19934;-66
2023/05/10 09:13:26;;;;;;;;;;;15.90;99.90;;;;;;4993018;28;19968;-67
2023/05/10 09:15:52;;;;;;;;;;;15.80;99.90;;;;;;4998652;28;20020;-66
2023/05/10 09:18:18;;;;;;;;;;;15.70;99.90;;;;;;4995591;28;20007;-65
2023/05/10 09:20:43;;;;;;;;;;;15.70;99.90;;;;;;4987300;28;20377;-65
2023/05/10 09:23:12;;;;;;;;;;;15.80;99.90;;;;;;4987855;28;19922;-67
2023/05/10 09:25:38;;;;;;;;;;;15.90;99.90;;;;;;4991443;28;19926;-67
2023/05/10 09:28:05;;;;;;;;;;;15.80;99.90;;;;;;4985231;28;20046;-65
2023/05/10 09:30:31;;;;;;;;;;;15.80;99.90;;;;;;4992568;28;20320;-67
2023/05/10 09:32:57;;;;;;;;;;;15.80;99.90;;;;;;4999509;28;19922;-67
2023/05/10 09:35:24;;;;;;;;;;;15.70;99.90;;;;;;4998004;28;20028;-66
2023/05/10 09:37:51;;;;;;;;;;;15.60;99.90;;;;;;4988697;28;19953;-67
2023/05/10 09:40:20;;;;;;;;;;;15.60;99.90;;;;;;4992258;28;19944;-66
2023/05/10 09:42:52;;;;;;;;;;;15.50;99.90;;;;;;4985964;28;19925;-65
2023/05/10 09:45:18;;;;;;;;;;;15.50;99.90;;;;;;4981473;28;19930;-66
2023/05/10 09:47:44;;;;;;;;;;;15.50;99.90;;;;;;4992686;28;20372;-67
2023/05/10 09:50:09;;;;;;;;;;;15.50;99.90;;;;;;5002643;28;19980;-67
2023/05/10 09:52:48;;;;;;;;;;;15.50;99.90;;;;;;4987308;28;20009;-66
2023/05/10 09:55:14;;;;;;;;;;;15.50;99.90;;;;;;4998328;28;19929;-66
2023/05/10 09:57:40;;;;;;;;;;;15.40;99.90;;;;;;4994525;28;20012;-66
2023/05/10 10:00:06;;;;;;;;;;;15.50;99.90;;;;;;4985965;28;19929;-66
2023/05/10 10:02:32;;;;;;;;;;;15.50;99.90;;;;;;4992000;28;19921;-67
2023/05/10 10:04:58;;;;;;;;;;;15.70;99.90;;;;;;4985941;28;20171;-66
2023/05/10 10:07:25;;;;;;;;;;;15.70;99.90;;;;;;4987647;28;20303;-66
2023/05/10 10:09:51;;;;;;;;;;;15.80;99.90;;;;;;4992191;28;20376;-67
2023/05/10 10:12:16;;;;;;;;;;;15.90;99.90;;;;;;4993798;28;19922;-66
2023/05/10 10:14:42;;;;;;;;;;;15.90;99.90;;;;;;4984963;28;20490;-67
2023/05/10 10:17:08;;;;;;;;;;;16.00;99.90;;;;;;4984892;28;19984;-65
2023/05/10 10:19:35;;;;;;;;;;;16.10;99.90;;;;;;4991327;28;20336;-66
2023/05/10 10:22:00;;;;;;;;;;;16.10;99.90;;;;;;4992846;28;19926;-65
2023/05/10 10:24:26;;;;;;;;;;;16.20;99.90;;;;;;4987984;28;19921;-66
2023/05/10 10:26:53;;;;;;;;;;;16.10;99.90;;;;;;5002849;28;19922;-65
2023/05/10 10:29:35;;;;;;;;;;;16.00;99.90;;;;;;4991445;28;19933;-65
2023/05/10 10:32:19;;;;;;;;;;;15.90;99.90;;;;;;4995404;28;19932;-65
2023/05/10 10:34:44;;;;;;;;;;;15.80;99.90;;;;;;4985322;28;19972;-65
2023/05/10 10:37:10;;;;;;;;;;;15.90;99.90;;;;;;4988437;28;19930;-66
2023/05/10 10:39:36;;;;;;;;;;;15.80;99.90;;;;;;4999697;28;20486;-64
2023/05/10 10:42:03;;;;;;;;;;;15.90;99.90;;;;;;4995643;28;19921;-65
2023/05/10 10:44:33;;;;;;;;;;;16.00;99.90;;;;;;4993450;28;19961;-65
2023/05/10 10:47:18;;;;;;;;;;;16.10;99.90;;;;;;4986010;28;20021;-65
2023/05/10 10:49:48;;;;;;;;;;;16.20;99.90;;;;;;4980254;28;19933;-66
2023/05/10 10:52:32;;;;;;;;;;;16.30;99.90;;;;;;5004789;28;20393;-65
2023/05/10 10:55:05;;;;;;;;;;;16.30;99.90;;;;;;4985324;28;19926;-65
2023/05/10 10:57:51;;;;;;;;;;;16.40;99.90;;;;;;4990964;28;20154;-65
2023/05/10 11:00:36;;;;;;;;;;;16.50;99.90;;;;;;4987008;28;20582;-65
2023/05/10 11:03:01;;;;;;;;;;;16.50;99.90;;;;;;4985133;28;19926;-65
2023/05/10 11:05:35;;;;;;;;;;;16.30;99.90;;;;;;4983918;28;19932;-65
2023/05/10 11:08:06;;;;;;;;;;;16.20;99.90;;;;;;4987603;28;19926;-66
2023/05/10 11:10:31;;;;;;;;;;;16.20;99.90;;;;;;4988473;28;20399;-65
2023/05/10 11:13:04;;;;;;;;;;;16.10;99.90;;;;;;4988158;28;19926;-67
2023/05/10 11:15:30;;;;;;;;;;;16.20;99.90;;;;;;4994419;28;19926;-66
2023/05/10 11:17:56;;;;;;;;;;;16.30;99.90;;;;;;5002672;28;19925;-67
2023/05/10 11:20:24;;;;;;;;;;;16.20;99.90;;;;;;4990618;28;19929;-65
2023/05/10 11:22:51;;;;;;;;;;;16.20;99.90;;;;;;4985591;28;19922;-67
2023/05/10 11:25:17;;;;;;;;;;;16.20;99.90;;;;;;4984955;28;20024;-66
2023/05/10 11:27:42;;;;;;;;;;;16.20;99.90;;;;;;4986040;28;20440;-67
2023/05/10 11:30:10;;;;;;;;;;;16.30;99.90;;;;;;4989936;28;19926;-68
2023/05/10 11:32:38;;;;;;;;;;;16.20;99.90;;;;;;4987653;28;19929;-67
2023/05/10 11:35:07;;;;;;;;;;;16.30;99.90;;;;;;4987668;28;19983;-67
2023/05/10 11:37:34;;;;;;;;;;;16.40;99.90;;;;;;4989469;28;20365;-66
2023/05/10 11:39:59;;;;;;;;;;;16.50;99.90;;;;;;4998859;22;19976;-65
2023/05/10 11:42:25;;;;;;;;;;;16.50;99.90;;;;;;5036785;28;19925;-65
2023/05/10 11:44:50;;;;;;;;;;;16.50;99.90;;;;;;5045716;28;19982;-65
2023/05/10 11:47:16;;;;;;;;;;;16.60;99.90;;;;;;5037593;28;19936;-65
2023/05/10 11:49:44;;;;;;;;;;;16.50;99.90;;;;;;5051247;28;19999;-65
2023/05/10 11:52:13;;;;;;;;;;;16.40;99.90;;;;;;5052391;28;19925;-64
2023/05/10 11:54:44;;;;;;;;;;;16.30;99.90;;;;;;5048615;28;19921;-65
2023/05/10 11:57:10;;;;;;;;;;;16.30;99.90;;;;;;5038127;28;19932;-65
2023/05/10 11:59:36;;;;;;;;;;;16.20;99.90;;;;;;5052126;28;19928;-64
2023/05/10 12:02:03;;;;;;;;;;;16.30;99.90;;;;;;5031979;28;20387;-65
2023/05/10 12:04:29;;;;;;;;;;;16.30;99.90;;;;;;5034378;28;19959;-64
2023/05/10 12:06:54;;;;;;;;;;;16.40;99.90;;;;;;5042365;28;19921;-64
2023/05/10 12:09:20;;;;;;;;;;;16.30;99.90;;;;;;5051721;28;19987;-65
2023/05/10 12:11:45;;;;;;;;;;;16.20;99.90;;;;;;5067863;28;19921;-65
2023/05/10 12:14:11;;;;;;;;;;;16.20;99.90;;;;;;5039524;28;20023;-64
2023/05/10 12:16:36;;;;;;;;;;;16.20;99.90;;;;;;5045784;28;19928;-65
2023/05/10 12:19:02;;;;;;;;;;;16.20;99.90;;;;;;5051482;28;19925;-65
2023/05/10 12:21:30;;;;;;;;;;;16.10;99.90;;;;;;5051710;28;19921;-65
2023/05/10 12:23:59;;;;;;;;;;;16.20;99.90;;;;;;5039486;28;19921;-65
2023/05/10 12:26:26;;;;;;;;;;;16.20;99.90;;;;;;5047514;28;19971;-64
2023/05/10 12:28:53;;;;;;;;;;;16.20;99.90;;;;;;5031371;28;20323;-65
2023/05/10 12:31:18;;;;;;;;;;;16.30;99.90;;;;;;5028537;28;19928;-65
2023/05/10 12:33:45;;;;;;;;;;;16.30;99.90;;;;;;5047871;28;20306;-65
2023/05/10 12:36:11;;;;;;;;;;;16.40;99.90;;;;;;5055989;28;19931;-64
2023/05/10 12:38:38;;;;;;;;;;;16.50;99.90;;;;;;5044675;28;20063;-65
2023/05/10 12:41:04;;;;;;;;;;;16.50;99.90;;;;;;5042791;28;19921;-64
2023/05/10 12:43:30;;;;;;;;;;;16.60;99.90;;;;;;5033330;28;20004;-65
2023/05/10 12:45:56;;;;;;;;;;;16.70;99.90;;;;;;5031828;28;20063;-65
2023/05/10 12:48:22;;;;;;;;;;;16.70;99.90;;;;;;5036284;28;20437;-65
2023/05/10 12:50:47;;;;;;;;;;;16.90;99.90;;;;;;5039296;28;19932;-65
2023/05/10 12:53:15;;;;;;;;;;;17.00;99.90;;;;;;5031674;28;20373;-65
2023/05/10 12:55:41;;;;;;;;;;;17.00;99.90;;;;;;5036318;28;19921;-65
2023/05/10 12:58:06;;;;;;;;;;;17.20;99.90;;;;;;5040751;28;19966;-64
2023/05/10 13:00:32;;;;;;;;;;;17.30;99.90;;;;;;5041136;28;19932;-65
2023/05/10 13:02:57;;;;;;;;;;;17.30;99.90;;;;;;5029095;28;19929;-65
2023/05/10 13:05:23;;;;;;;;;;;17.40;99.90;;;;;;5040984;28;19922;-65
2023/05/10 13:07:48;;;;;;;;;;;17.40;99.90;;;;;;5050494;28;19920;-65
2023/05/10 13:10:14;;;;;;;;;;;17.40;99.90;;;;;;5049644;28;20349;-65
2023/05/10 13:12:39;;;;;;;;;;;17.30;99.90;;;;;;5042515;28;19931;-64
2023/05/10 13:15:05;;;;;;;;;;;17.20;99.90;;;;;;5045840;28;19944;-64
2023/05/10 13:17:30;;;;;;;;;;;17.20;99.90;;;;;;5045345;28;20611;-65
2023/05/10 13:19:56;;;;;;;;;;;17.30;99.90;;;;;;5039855;28;19943;-64
2023/05/10 13:22:21;;;;;;;;;;;17.40;99.90;;;;;;5037796;28;20355;-65
2023/05/10 13:24:47;;;;;;;;;;;17.50;99.90;;;;;;5041882;28;19920;-64
2023/05/10 13:27:12;;;;;;;;;;;17.40;99.90;;;;;;5041431;28;19925;-64
2023/05/10 13:29:38;;;;;;;;;;;17.40;99.90;;;;;;5044615;28;20410;-66
2023/05/10 13:32:03;;;;;;;;;;;17.40;99.90;;;;;;5043455;28;19969;-65
2023/05/10 13:34:29;;;;;;;;;;;17.50;99.90;;;;;;5040443;28;20298;-65
2023/05/10 13:36:55;;;;;;;;;;;17.50;99.90;;;;;;5038529;28;19928;-65
2023/05/10 13:39:21;;;;;;;;;;;17.50;99.90;;;;;;5038986;28;19936;-65
2023/05/10 13:41:47;;;;;;;;;;;17.40;99.90;;;;;;5041565;28;19922;-65
2023/05/10 13:44:14;;;;;;;;;;;17.40;99.90;;;;;;5038593;28;19972;-64
2023/05/10 13:46:40;;;;;;;;;;;17.30;99.90;;;;;;5042747;28;19922;-65
2023/05/10 13:49:05;;;;;;;;;;;17.30;99.90;;;;;;5047348;28;19932;-64
2023/05/10 13:51:31;;;;;;;;;;;17.30;99.90;;;;;;5037249;28;19921;-65
2023/05/10 13:53:57;;;;;;;;;;;17.20;99.90;;;;;;5033042;28;19921;-65
2023/05/10 13:56:23;;;;;;;;;;;17.30;99.90;;;;;;5042374;28;20403;-65
2023/05/10 13:58:48;;;;;;;;;;;17.20;99.90;;;;;;5041814;28;20271;-64
2023/05/10 14:01:14;;;;;;;;;;;17.20;99.90;;;;;;5041959;28;19921;-62
2023/05/10 14:03:39;;;;;;;;;;;17.20;99.90;;;;;;5041363;28;20390;-64
2023/05/10 14:06:07;;;;;;;;;;;17.00;99.90;;;;;;5053411;28;20288;-65
2023/05/10 14:08:32;;;;;;;;;;;16.90;99.90;;;;;;5071507;28;20390;-65
2023/05/10 14:10:58;;;;;;;;;;;16.70;99.90;;;;;;5047447;28;19925;-65
2023/05/10 14:13:24;;;;;;;;;;;16.70;99.90;;;;;;5042930;28;19920;-65